Time;durP1;ratioP1;P1;durP2;ratioP2;P2;SDS_P1;SDS_P2;PMS_P1;PMS_P2;Temp;Humidity;BMP_temperature;BMP_pressure;BME280_temperature;BME280_humidity;BME280_pressure;Samples;Min_cycle;Max_cycle;Signal;HPM_P1;HPM_P2
2022/03/02 00:00:27;;;;;;;16.80;11.50;;;;;;;2.31;55.85;100839.59;1088055;54;20031;-77
2022/03/02 00:01:29;;;;;;;18.60;11.80;;;;;;;2.27;55.79;100845.91;1088060;54;20031;-76
2022/03/02 00:02:33;;;;;;;19.75;11.93;;;;;;;2.24;55.91;100848.72;1088215;54;20053;-76
2022/03/02 00:03:39;;;;;;;14.85;10.43;;;;;;;2.20;55.78;100841.03;1088173;54;20042;-77
2022/03/02 00:04:40;;;;;;;15.75;10.55;;;;;;;2.20;55.85;100841.03;1088139;54;20101;-76
2022/03/02 00:05:44;;;;;;;19.08;11.13;;;;;;;2.21;55.60;100840.94;1088566;47;20026;-76
2022/03/02 00:06:49;;;;;;;13.65;10.13;;;;;;;2.22;55.44;100834.75;1088024;54;20057;-77
2022/03/02 00:07:51;;;;;;;14.60;10.45;;;;;;;2.17;55.50;100842.03;1088148;54;20045;-77
2022/03/02 00:08:55;;;;;;;15.35;10.38;;;;;;;2.17;55.53;100834.09;1088166;54;20134;-76
2022/03/02 00:09:57;;;;;;;13.85;9.48;;;;;;;2.18;55.34;100835.78;1087982;54;20042;-76
2022/03/02 00:11:05;;;;;;;15.43;9.68;;;;;;;2.18;55.32;100833.16;1088588;39;21014;-77
2022/03/02 00:12:06;;;;;;;16.83;10.05;;;;;;;2.09;55.47;100828.31;1088022;54;20069;-77
2022/03/02 00:13:12;;;;;;;16.33;10.63;;;;;;;2.08;55.74;100821.34;1088211;47;20030;-76
2022/03/02 00:14:13;;;;;;;14.30;9.73;;;;;;;2.01;56.01;100823.41;1088152;54;20034;-76
2022/03/02 00:15:18;;;;;;;15.23;9.60;;;;;;;2.05;55.68;100827.59;1088119;54;20101;-77
2022/03/02 00:16:22;;;;;;;13.25;8.95;;;;;;;2.12;55.60;100823.78;1088076;54;20038;-77
2022/03/02 00:17:26;;;;;;;13.63;9.52;;;;;;;2.13;55.47;100824.63;1088132;54;20022;-76
2022/03/02 00:18:28;;;;;;;12.55;9.00;;;;;;;2.19;55.33;100824.31;1088091;54;20026;-76
2022/03/02 00:19:32;;;;;;;14.60;9.60;;;;;;;2.17;55.46;100826.19;1088124;54;20026;-76
2022/03/02 00:20:34;;;;;;;16.38;10.25;;;;;;;2.17;55.54;100807.72;1088065;54;20030;-76
2022/03/02 00:21:39;;;;;;;14.00;9.07;;;;;;;2.19;55.59;100813.75;1087963;54;20029;-77
2022/03/02 00:22:41;;;;;;;13.43;9.00;;;;;;;2.13;55.83;100816.69;1087972;54;20046;-76
2022/03/02 00:23:45;;;;;;;15.18;9.68;;;;;;;2.15;55.81;100802.50;1087925;54;20041;-78
2022/03/02 00:24:50;;;;;;;17.15;12.07;;;;;;;2.08;56.11;100810.78;1087945;54;20042;-76
2022/03/02 00:25:55;;;;;;;16.20;10.40;;;;;;;2.10;55.82;100809.78;1087457;54;20027;-77
2022/03/02 00:26:59;;;;;;;20.75;10.38;;;;;;;2.13;55.92;100811.41;1087069;54;20065;-77
2022/03/02 00:28:03;;;;;;;14.93;9.80;;;;;;;2.13;55.87;100811.41;1087111;54;20039;-76
2022/03/02 00:29:05;;;;;;;19.77;10.50;;;;;;;2.11;56.08;100806.22;1087266;54;20062;-76
2022/03/02 00:30:10;;;;;;;21.45;11.18;;;;;;;2.01;56.63;100805.78;1087289;54;20119;-78
2022/03/02 00:31:12;;;;;;;16.00;10.75;;;;;;;1.98;56.24;100810.34;1087303;47;20057;-77
2022/03/02 00:32:17;;;;;;;16.25;10.48;;;;;;;2.00;56.15;100811.97;1087250;54;20556;-76
2022/03/02 00:33:19;;;;;;;14.85;10.77;;;;;;;1.98;56.45;100811.22;1087587;54;20809;-77
2022/03/02 00:34:23;;;;;;;15.35;10.27;;;;;;;1.95;56.42;100805.22;1088102;31;20588;-77
2022/03/02 00:35:25;;;;;;;16.30;11.15;;;;;;;1.92;56.68;100814.13;1087425;54;20049;-78
2022/03/02 00:36:29;;;;;;;16.85;10.82;;;;;;;1.95;56.47;100813.13;1087529;54;20078;-77
2022/03/02 00:37:32;;;;;;;15.18;10.32;;;;;;;1.97;56.31;100803.34;1088918;39;20465;-78
2022/03/02 00:38:36;;;;;;;14.35;9.25;;;;;;;2.01;55.91;100811.06;1087490;54;20035;-77
2022/03/02 00:39:38;;;;;;;13.82;9.65;;;;;;;2.02;55.87;100810.13;1087387;54;20046;-77
2022/03/02 00:40:43;;;;;;;15.38;9.02;;;;;;;2.07;55.92;100799.38;1087388;54;20041;-77
2022/03/02 00:41:45;;;;;;;12.75;8.90;;;;;;;2.12;55.73;100800.03;1087083;54;20034;-77
2022/03/02 00:42:52;;;;;;;12.98;9.60;;;;;;;2.12;55.65;100792.13;1087113;54;20034;-76
2022/03/02 00:43:54;;;;;;;13.18;8.57;;;;;;;2.14;55.62;100795.50;1088127;39;20105;-77
2022/03/02 00:44:58;;;;;;;15.23;9.50;;;;;;;2.09;56.03;100801.94;1087169;54;20031;-76
2022/03/02 00:46:02;;;;;;;14.80;10.57;;;;;;;2.12;55.75;100800.03;1087466;54;20038;-77
2022/03/02 00:47:06;;;;;;;16.08;10.35;;;;;;;2.08;56.11;100801.09;1087422;54;20039;-77
2022/03/02 00:48:10;;;;;;;14.13;9.77;;;;;;;2.10;56.29;100798.38;1087920;54;20038;-76
2022/03/02 00:49:12;;;;;;;16.83;10.52;;;;;;;2.09;56.43;100802.81;1087960;54;20061;-76
2022/03/02 00:50:17;;;;;;;16.55;10.07;;;;;;;2.08;56.37;100806.38;1087912;54;20030;-76
2022/03/02 00:51:20;;;;;;;15.02;10.50;;;;;;;2.10;56.33;100809.78;1088500;39;20788;-76
2022/03/02 00:52:25;;;;;;;14.95;9.82;;;;;;;2.13;56.33;100803.50;1087378;54;20596;-77
2022/03/02 00:53:27;;;;;;;15.98;9.65;;;;;;;2.15;56.14;100806.94;1087508;54;20038;-77
2022/03/02 00:54:31;;;;;;;14.40;9.52;;;;;;;2.12;56.23;100807.06;1087382;54;20552;-77
2022/03/02 00:55:34;;;;;;;15.60;10.15;;;;;;;2.15;56.14;100805.13;1087734;54;20046;-77
2022/03/02 00:56:38;;;;;;;15.55;9.23;;;;;;;2.17;56.07;100805.09;1087328;54;20087;-77
2022/03/02 00:57:39;;;;;;;12.38;9.25;;;;;;;2.16;56.11;100808.66;1087468;54;20027;-77
2022/03/02 00:58:46;;;;;;;13.73;8.90;;;;;;;2.18;56.06;100812.03;1087423;54;20054;-76
2022/03/02 00:59:48;;;;;;;13.07;9.25;;;;;;;2.13;56.16;100814.91;1087403;54;20610;-79
2022/03/02 01:00:52;;;;;;;14.68;9.43;;;;;;;2.10;56.41;100804.50;1086729;54;20039;-77
2022/03/02 01:01:54;;;;;;;15.98;9.82;;;;;;;2.05;56.65;100810.94;1087282;54;20047;-77
2022/03/02 01:02:58;;;;;;;17.88;9.93;;;;;;;2.10;56.38;100804.50;1087462;54;20031;-76
2022/03/02 01:04:00;;;;;;;13.43;9.45;;;;;;;2.13;56.47;100800.88;1087511;54;20049;-76
2022/03/02 01:05:04;;;;;;;13.55;9.10;;;;;;;2.16;56.06;100800.75;1087421;54;20045;-76
2022/03/02 01:06:06;;;;;;;13.88;9.50;;;;;;;2.14;56.37;100800.78;1087975;54;20056;-77
2022/03/02 01:07:10;;;;;;;16.27;9.35;;;;;;;2.16;56.20;100800.75;1087997;54;20042;-76
2022/03/02 01:08:12;;;;;;;13.05;8.90;;;;;;;2.20;56.10;100798.81;1088019;54;20026;-76
2022/03/02 01:09:16;;;;;;;10.65;8.25;;;;;;;2.21;56.26;100793.44;1088050;54;20041;-76
2022/03/02 01:10:21;;;;;;;15.00;10.18;;;;;;;2.24;56.21;100792.44;1087957;54;20043;-76
2022/03/02 01:11:23;;;;;;;19.00;9.38;;;;;;;2.17;56.19;100794.53;1087949;54;20073;-76
2022/03/02 01:12:27;;;;;;;14.00;8.50;;;;;;;2.21;56.19;100789.97;1088208;54;20034;-78
2022/03/02 01:13:29;;;;;;;15.27;8.95;;;;;;;2.23;56.18;100793.38;1088341;54;20030;-76
2022/03/02 01:14:36;;;;;;;13.45;8.98;;;;;;;2.24;56.05;100787.16;1088373;54;20031;-76
2022/03/02 01:15:37;;;;;;;13.77;9.38;;;;;;;2.24;56.03;100785.41;1088406;54;20023;-77
2022/03/02 01:16:41;;;;;;;12.88;8.73;;;;;;;2.26;56.00;100790.59;1092843;39;20479;-77
2022/03/02 01:17:43;;;;;;;13.52;9.30;;;;;;;2.24;55.94;100798.59;1087949;54;20035;-76
2022/03/02 01:18:49;;;;;;;13.32;8.95;;;;;;;2.19;56.35;100787.38;1088201;54;20034;-76
2022/03/02 01:19:51;;;;;;;15.70;10.20;;;;;;;2.18;56.31;100791.81;1088428;54;20035;-77
2022/03/02 01:20:55;;;;;;;14.85;10.05;;;;;;;2.18;56.34;100785.66;1088387;54;20030;-77
2022/03/02 01:21:57;;;;;;;15.98;8.57;;;;;;;2.22;56.01;100781.97;1088394;54;20103;-76
2022/03/02 01:23:01;;;;;;;16.02;9.15;;;;;;;2.24;55.89;100784.53;1088376;54;20780;-77
2022/03/02 01:24:03;;;;;;;16.17;10.27;;;;;;;2.16;56.23;100783.09;1088429;54;20041;-76
2022/03/02 01:25:10;;;;;;;14.68;10.18;;;;;;;2.12;56.47;100785.97;1088366;54;20041;-76
2022/03/02 01:26:11;;;;;;;14.57;9.75;;;;;;;2.15;56.39;100775.28;1088393;54;20022;-76
2022/03/02 01:27:16;;;;;;;16.48;9.20;;;;;;;2.12;56.33;100780.69;1088341;54;20018;-76
2022/03/02 01:28:18;;;;;;;15.35;9.80;;;;;;;2.10;56.67;100772.88;1090206;46;20701;-76
2022/03/02 01:29:23;;;;;;;16.35;11.13;;;;;;;2.02;56.90;100773.22;1088400;54;20042;-76
2022/03/02 01:30:27;;;;;;;20.23;12.07;;;;;;;1.97;57.35;100775.22;1088336;54;20022;-77
2022/03/02 01:31:31;;;;;;;20.38;12.27;;;;;;;1.93;57.51;100772.81;1088293;54;20046;-75
2022/03/02 01:32:33;;;;;;;14.65;9.45;;;;;;;1.96;57.34;100765.59;1088360;54;20030;-76
2022/03/02 01:33:37;;;;;;;14.02;9.88;;;;;;;1.99;57.06;100772.50;1088104;54;20031;-76
2022/03/02 01:34:39;;;;;;;15.40;10.45;;;;;;;2.01;56.98;100771.50;1087941;54;20053;-78
2022/03/02 01:35:43;;;;;;;13.63;9.35;;;;;;;2.06;57.02;100763.38;1088334;54;20071;-76
2022/03/02 01:36:44;;;;;;;14.40;9.45;;;;;;;2.07;56.54;100762.44;1088132;54;20586;-76
2022/03/02 01:37:50;;;;;;;18.45;10.00;;;;;;;2.06;56.75;100762.53;1088294;54;20021;-76
2022/03/02 01:38:52;;;;;;;14.77;9.63;;;;;;;2.05;56.65;100766.94;1088333;54;20038;-76
2022/03/02 01:39:56;;;;;;;13.32;9.30;;;;;;;2.08;56.50;100752.75;1088320;54;20034;-77
2022/03/02 01:40:58;;;;;;;14.15;9.10;;;;;;;2.11;56.18;100748.19;1088176;54;20039;-76
2022/03/02 01:42:02;;;;;;;13.60;8.90;;;;;;;2.12;56.34;100749.03;1088201;54;20072;-77
2022/03/02 01:43:04;;;;;;;15.95;9.85;;;;;;;2.10;56.09;100748.25;1087980;54;20063;-78
2022/03/02 01:44:08;;;;;;;16.25;10.02;;;;;;;2.06;55.96;100746.69;1088100;54;20035;-77
2022/03/02 01:45:11;;;;;;;12.98;9.68;;;;;;;2.03;55.76;100745.06;1088196;54;20038;-77
2022/03/02 01:46:19;;;;;;;15.98;9.48;;;;;;;2.04;55.73;100736.19;1088098;54;20027;-76
2022/03/02 01:47:21;;;;;;;14.27;9.55;;;;;;;2.00;55.92;100743.41;1088114;54;20026;-77
2022/03/02 01:48:25;;;;;;;16.98;9.88;;;;;;;2.05;55.63;100747.63;1088212;54;20038;-76
2022/03/02 01:49:27;;;;;;;14.05;8.55;;;;;;;2.11;55.52;100748.19;1088173;54;20021;-77
2022/03/02 01:50:32;;;;;;;16.50;9.35;;;;;;;2.12;55.35;100746.41;1087604;54;20042;-76
2022/03/02 01:51:34;;;;;;;13.68;9.20;;;;;;;2.14;55.27;100739.28;1087264;54;20057;-77
2022/03/02 01:52:39;;;;;;;12.32;8.40;;;;;;;2.15;55.22;100739.19;1087709;54;20050;-76
2022/03/02 01:53:43;;;;;;;13.50;8.20;;;;;;;2.16;54.97;100729.50;1087731;54;20051;-77
2022/03/02 01:54:46;;;;;;;13.80;9.65;;;;;;;2.11;55.18;100729.72;1087925;54;20027;-78
2022/03/02 01:55:50;;;;;;;14.93;9.57;;;;;;;2.15;55.05;100727.78;1088131;54;20031;-78
2022/03/02 01:56:54;;;;;;;13.30;8.95;;;;;;;2.19;55.14;100734.63;1088149;54;20057;-76
2022/03/02 01:57:57;;;;;;;14.38;8.40;;;;;;;2.14;55.01;100724.28;1088230;54;20694;-75
2022/03/02 01:59:01;;;;;;;13.15;8.35;;;;;;;2.13;54.88;100725.22;1089896;46;20046;-77
2022/03/02 02:00:05;;;;;;;13.20;9.23;;;;;;;2.10;55.08;100724.50;1089485;46;20041;-77
2022/03/02 02:01:09;;;;;;;14.23;9.43;;;;;;;2.11;55.14;100720.94;1087940;54;20690;-76
2022/03/02 02:02:13;;;;;;;14.07;8.82;;;;;;;2.11;54.98;100720.94;1087847;54;20026;-77
2022/03/02 02:03:18;;;;;;;15.48;9.70;;;;;;;2.09;54.88;100706.97;1087960;54;20034;-79
2022/03/02 02:04:20;;;;;;;13.15;9.00;;;;;;;2.13;55.00;100713.81;1088078;54;20030;-77
2022/03/02 02:05:25;;;;;;;13.13;8.43;;;;;;;2.11;54.82;100710.38;1088100;54;20038;-77
2022/03/02 02:06:27;;;;;;;10.80;8.20;;;;;;;2.15;54.76;100706.69;1091293;39;20469;-77
2022/03/02 02:07:31;;;;;;;15.77;8.85;;;;;;;2.16;54.66;100708.41;1087525;54;20046;-78
2022/03/02 02:08:35;;;;;;;12.07;8.40;;;;;;;2.17;54.72;100704.84;1087764;54;20043;-77
2022/03/02 02:09:37;;;;;;;11.15;8.38;;;;;;;2.15;54.68;100704.91;1087976;54;20034;-77
2022/03/02 02:10:41;;;;;;;11.95;8.30;;;;;;;2.19;54.52;100700.31;1087931;54;20037;-77
2022/03/02 02:11:43;;;;;;;13.77;9.10;;;;;;;2.19;54.34;100697.69;1087894;54;20041;-77
2022/03/02 02:12:47;;;;;;;12.82;9.05;;;;;;;2.18;54.58;100696.84;1087960;46;20050;-77
2022/03/02 02:13:51;;;;;;;14.38;8.82;;;;;;;2.20;54.57;100699.38;1087980;54;20069;-77
2022/03/02 02:14:53;;;;;;;12.32;8.68;;;;;;;2.20;54.25;100686.19;1087976;54;20157;-78
2022/03/02 02:15:57;;;;;;;11.48;8.23;;;;;;;2.23;54.22;100696.63;1087951;54;20022;-77
2022/03/02 02:16:59;;;;;;;13.75;8.93;;;;;;;2.11;54.81;100692.81;1087949;54;20049;-77
2022/03/02 02:18:06;;;;;;;14.77;9.95;;;;;;;2.05;55.48;100695.72;1087933;54;20031;-80
2022/03/02 02:19:08;;;;;;;16.42;9.85;;;;;;;2.09;55.51;100684.09;1088103;54;20161;-76
2022/03/02 02:20:13;;;;;;;13.75;9.05;;;;;;;2.08;55.63;100689.47;1088137;54;20037;-78
2022/03/02 02:21:18;;;;;;;14.05;9.43;;;;;;;2.03;56.22;100684.41;1088223;54;20018;-80
2022/03/02 02:22:22;;;;;;;13.45;9.52;;;;;;;2.05;56.04;100679.88;1088141;54;20027;-77
2022/03/02 02:23:24;;;;;;;13.60;8.93;;;;;;;2.10;56.06;100682.31;1087958;54;20627;-77
2022/03/02 02:24:28;;;;;;;14.13;9.38;;;;;;;2.13;55.84;100677.72;1088151;54;20034;-78
2022/03/02 02:25:29;;;;;;;14.00;9.15;;;;;;;2.13;56.14;100680.38;1088105;54;20042;-77
2022/03/02 02:26:34;;;;;;;20.08;9.48;;;;;;;2.13;56.03;100684.81;1087758;54;20031;-77
2022/03/02 02:27:37;;;;;;;16.40;10.07;;;;;;;2.06;56.30;100684.25;1087957;54;20037;-77
2022/03/02 02:28:41;;;;;;;15.55;10.02;;;;;;;2.02;56.73;100680.91;1088280;54;20030;-78
2022/03/02 02:29:44;;;;;;;14.63;9.82;;;;;;;2.00;56.69;100682.75;1088236;54;20042;-77
2022/03/02 02:30:50;;;;;;;14.55;10.10;;;;;;;2.01;57.02;100679.19;1088873;46;20041;-77
2022/03/02 02:31:55;;;;;;;14.10;9.45;;;;;;;2.01;56.92;100684.47;1088117;54;20043;-77
2022/03/02 02:32:56;;;;;;;18.30;11.18;;;;;;;1.90;57.33;100678.84;1088207;54;20061;-77
2022/03/02 02:34:01;;;;;;;17.90;11.85;;;;;;;1.74;58.20;100675.22;1088067;47;20829;-77
2022/03/02 02:35:03;;;;;;;20.02;12.63;;;;;;;1.64;58.63;100680.94;1088066;54;20042;-80
2022/03/02 02:36:08;;;;;;;19.52;13.38;;;;;;;1.50;59.39;100683.38;1088167;54;20034;-77
2022/03/02 02:37:12;;;;;;;23.45;13.32;;;;;;;1.30;60.36;100681.63;1088130;54;20121;-77
2022/03/02 02:38:18;;;;;;;20.17;14.20;;;;;;;1.27;60.52;100687.06;1087989;54;20045;-77
2022/03/02 02:39:20;;;;;;;22.85;14.02;;;;;;;1.21;60.69;100686.41;1088174;54;20631;-76
2022/03/02 02:40:24;;;;;;;20.60;13.48;;;;;;;1.23;60.52;100687.19;1089829;46;20026;-77
2022/03/02 02:41:26;;;;;;;21.88;13.85;;;;;;;1.06;61.29;100689.72;1088191;46;20072;-77
2022/03/02 02:42:30;;;;;;;20.65;13.70;;;;;;;1.02;61.47;100689.00;1087938;54;20096;-77
2022/03/02 02:43:32;;;;;;;19.98;13.80;;;;;;;1.01;61.41;100689.94;1087194;54;20030;-76
2022/03/02 02:44:37;;;;;;;20.35;13.63;;;;;;;0.97;61.55;100687.50;1087366;54;20070;-77
2022/03/02 02:45:41;;;;;;;20.92;13.70;;;;;;;0.84;62.19;100701.19;1094706;39;20669;-77
2022/03/02 02:46:46;;;;;;;22.20;14.20;;;;;;;0.76;62.70;100693.63;1088091;54;20037;-77
2022/03/02 02:47:49;;;;;;;18.02;13.07;;;;;;;0.79;62.38;100695.28;1088100;54;20023;-77
2022/03/02 02:48:53;;;;;;;20.15;13.00;;;;;;;0.78;62.33;100707.56;1087806;54;20931;-77
2022/03/02 02:49:55;;;;;;;19.75;12.73;;;;;;;0.68;62.73;100698.34;1087968;54;20111;-76
2022/03/02 02:50:59;;;;;;;20.10;12.40;;;;;;;0.76;62.29;100704.16;1087800;54;20018;-77
2022/03/02 02:52:00;;;;;;;17.70;12.02;;;;;;;0.75;62.35;100698.97;1087817;54;20068;-77
2022/03/02 02:53:09;;;;;;;17.63;12.20;;;;;;;0.67;62.73;100704.53;1087807;54;20010;-76
2022/03/02 02:54:11;;;;;;;18.65;12.25;;;;;;;0.69;62.63;100701.88;1087726;54;20039;-76
2022/03/02 02:55:16;;;;;;;17.65;12.43;;;;;;;0.74;62.34;100705.13;1087807;54;20031;-76
2022/03/02 02:56:21;;;;;;;18.75;12.50;;;;;;;0.74;62.33;100706.00;1087771;54;20019;-78
2022/03/02 02:57:23;;;;;;;17.80;12.77;;;;;;;0.78;62.25;100702.31;1087732;54;20031;-76
2022/03/02 02:58:27;;;;;;;16.55;12.02;;;;;;;0.73;62.41;100706.94;1087843;54;20015;-77
2022/03/02 02:59:28;;;;;;;17.73;12.23;;;;;;;0.62;63.06;100706.53;1087973;54;20042;-78
2022/03/02 03:00:34;;;;;;;20.40;13.10;;;;;;;0.62;62.95;100706.53;1087800;54;20034;-77
2022/03/02 03:01:36;;;;;;;19.65;12.80;;;;;;;0.57;63.08;100705.84;1088947;46;20730;-78
2022/03/02 03:02:40;;;;;;;19.63;12.73;;;;;;;0.61;62.79;100710.06;1088173;54;20042;-77
2022/03/02 03:03:44;;;;;;;17.13;12.43;;;;;;;0.64;62.70;100703.81;1088205;54;20022;-77
2022/03/02 03:04:46;;;;;;;18.33;12.85;;;;;;;0.58;62.86;100705.81;1088240;54;20067;-77
2022/03/02 03:05:52;;;;;;;19.35;12.35;;;;;;;0.58;62.95;100705.81;1091501;46;20058;-77
2022/03/02 03:06:53;;;;;;;17.90;12.52;;;;;;;0.54;62.84;100703.38;1096272;39;20493;-78
2022/03/02 03:07:57;;;;;;;18.75;13.38;;;;;;;0.62;62.81;100702.09;1088236;54;20019;-77
2022/03/02 03:09:05;;;;;;;20.88;13.00;;;;;;;0.59;63.00;100701.38;1088213;54;20023;-76
2022/03/02 03:10:09;;;;;;;18.27;12.50;;;;;;;0.61;62.94;100702.19;1088244;54;20086;-77
2022/03/02 03:11:13;;;;;;;21.33;12.48;;;;;;;0.62;62.90;100698.63;1088168;54;20026;-77
2022/03/02 03:12:15;;;;;;;20.08;11.77;;;;;;;0.68;62.54;100695.72;1088168;54;20034;-77
2022/03/02 03:13:19;;;;;;;19.33;12.13;;;;;;;0.77;62.50;100697.97;1088234;54;20026;-77
2022/03/02 03:14:20;;;;;;;16.15;10.82;;;;;;;0.90;61.89;100708.81;1088162;54;20015;-78
2022/03/02 03:15:25;;;;;;;15.13;10.00;;;;;;;1.03;61.52;100690.72;1088180;54;20038;-77
2022/03/02 03:16:27;;;;;;;15.52;9.65;;;;;;;1.13;61.23;100690.31;1087695;54;20027;-78
2022/03/02 03:17:31;;;;;;;17.00;10.20;;;;;;;1.16;60.85;100696.31;1087806;54;20030;-76
2022/03/02 03:18:35;;;;;;;12.60;9.48;;;;;;;1.21;60.70;100693.47;1088162;54;20059;-77
2022/03/02 03:19:37;;;;;;;14.38;9.30;;;;;;;1.25;60.69;100695.00;1088105;54;20046;-77
2022/03/02 03:20:41;;;;;;;12.55;8.48;;;;;;;1.29;60.40;100691.34;1088168;54;20041;-78
2022/03/02 03:21:43;;;;;;;15.60;9.50;;;;;;;1.29;60.46;100688.69;1088149;54;20030;-77
2022/03/02 03:22:47;;;;;;;13.48;8.98;;;;;;;1.32;60.24;100690.34;1094372;39;20587;-78
2022/03/02 03:23:49;;;;;;;13.27;9.32;;;;;;;1.33;60.28;100687.63;1088112;54;20055;-77
2022/03/02 03:24:56;;;;;;;12.75;8.52;;;;;;;1.36;60.52;100687.50;1088100;54;20034;-79
2022/03/02 03:26:00;;;;;;;17.50;9.40;;;;;;;1.39;60.17;100684.72;1088092;54;20030;-77
2022/03/02 03:27:01;;;;;;;12.98;8.52;;;;;;;1.40;60.03;100685.56;1088450;46;20054;-77
2022/03/02 03:28:07;;;;;;;12.80;8.93;;;;;;;1.42;60.22;100690.78;1088188;54;20053;-76
2022/03/02 03:29:09;;;;;;;13.85;8.43;;;;;;;1.45;60.10;100690.63;1088196;54;20022;-78
2022/03/02 03:30:15;;;;;;;12.88;8.43;;;;;;;1.46;60.17;100690.56;1088142;54;20030;-77
2022/03/02 03:31:17;;;;;;;14.23;9.93;;;;;;;1.46;60.18;100690.56;1088063;54;20729;-77
2022/03/02 03:32:22;;;;;;;12.40;8.75;;;;;;;1.48;60.03;100687.84;1088038;54;20050;-77
2022/03/02 03:33:23;;;;;;;13.73;9.63;;;;;;;1.28;60.55;100689.63;1087764;54;20058;-77
2022/03/02 03:34:28;;;;;;;17.45;11.20;;;;;;;1.09;61.15;100690.44;1087549;54;20038;-77
2022/03/02 03:35:29;;;;;;;14.15;10.40;;;;;;;1.06;61.55;100692.38;1087646;54;20034;-77
2022/03/02 03:36:34;;;;;;;16.65;11.38;;;;;;;1.00;61.67;100690.84;1087670;54;20038;-77
2022/03/02 03:37:36;;;;;;;19.42;11.60;;;;;;;1.04;61.76;100684.50;1087643;54;20030;-77
2022/03/02 03:38:41;;;;;;;14.48;10.60;;;;;;;1.08;61.77;100688.72;1087732;54;20054;-77
2022/03/02 03:39:42;;;;;;;13.90;9.85;;;;;;;1.24;61.08;100685.41;1087709;54;20042;-78
2022/03/02 03:40:50;;;;;;;14.20;9.73;;;;;;;1.32;60.77;100683.31;1088113;54;20030;-78
2022/03/02 03:41:52;;;;;;;15.18;9.93;;;;;;;1.39;60.55;100684.72;1088357;46;20042;-78
2022/03/02 03:42:57;;;;;;;13.02;8.93;;;;;;;1.37;60.45;100680.47;1088135;54;20030;-77
2022/03/02 03:43:58;;;;;;;15.02;9.25;;;;;;;1.35;60.81;100683.13;1088122;54;20634;-78
2022/03/02 03:45:02;;;;;;;13.57;8.93;;;;;;;1.36;60.83;100682.22;1087883;54;20014;-77
2022/03/02 03:46:10;;;;;;;14.27;9.52;;;;;;;1.39;60.40;100682.09;1088106;54;20059;-77
2022/03/02 03:47:19;;;;;;;15.55;9.88;;;;;;;1.39;60.59;100686.50;1088012;54;20030;-78
2022/03/02 03:48:23;;;;;;;15.10;9.05;;;;;;;1.40;60.65;100690.84;1088052;54;20061;-77
2022/03/02 03:49:25;;;;;;;14.32;10.18;;;;;;;1.39;60.48;100687.34;1088022;54;20042;-76
2022/03/02 03:50:29;;;;;;;14.93;10.02;;;;;;;1.36;60.35;100687.50;1090834;39;20472;-77
2022/03/02 03:51:31;;;;;;;15.73;10.45;;;;;;;1.27;60.61;100692.34;1087997;54;20030;-78
2022/03/02 03:52:35;;;;;;;13.82;9.95;;;;;;;1.23;60.77;100684.56;1087812;54;20037;-77
2022/03/02 03:53:41;;;;;;;15.18;10.05;;;;;;;1.19;60.48;100685.59;1087946;54;20030;-76
2022/03/02 03:54:42;;;;;;;14.93;9.90;;;;;;;1.15;60.93;100685.81;1087920;54;20026;-77
2022/03/02 03:55:49;;;;;;;14.27;10.73;;;;;;;1.12;60.81;100681.53;1087465;54;20083;-76
2022/03/02 03:56:51;;;;;;;16.83;10.65;;;;;;;1.09;60.94;100685.19;1087551;54;20030;-78
2022/03/02 03:57:55;;;;;;;13.57;9.73;;;;;;;1.09;60.87;100679.91;1087725;54;20034;-77
2022/03/02 03:58:58;;;;;;;15.10;9.93;;;;;;;1.04;60.70;100681.03;1089299;46;20034;-77
2022/03/02 04:00:02;;;;;;;14.05;9.75;;;;;;;1.04;60.73;100673.97;1090546;39;20602;-77
2022/03/02 04:01:04;;;;;;;14.27;9.68;;;;;;;0.97;60.99;100667.28;1090299;39;20495;-78
2022/03/02 04:02:08;;;;;;;19.00;9.90;;;;;;;1.00;60.80;100676.81;1087943;54;20052;-76
2022/03/02 04:03:13;;;;;;;17.25;10.57;;;;;;;1.02;60.78;100674.97;1088082;54;20049;-77
2022/03/02 04:04:14;;;;;;;16.05;9.43;;;;;;;1.00;60.62;100667.16;1088098;54;20038;-76
2022/03/02 04:05:19;;;;;;;14.35;10.10;;;;;;;0.98;60.79;100669.00;1088092;54;20038;-78
2022/03/02 04:06:21;;;;;;;17.73;11.07;;;;;;;0.96;60.74;100667.34;1087855;54;20094;-78
2022/03/02 04:07:25;;;;;;;15.60;10.20;;;;;;;0.97;60.59;100667.28;1087543;54;20046;-76
2022/03/02 04:08:29;;;;;;;15.38;9.82;;;;;;;0.95;60.64;100668.28;1087666;54;20065;-76
2022/03/02 04:09:31;;;;;;;15.35;10.32;;;;;;;0.92;60.67;100666.66;1087665;54;20031;-79
2022/03/02 04:10:35;;;;;;;13.55;9.32;;;;;;;0.97;60.72;100666.44;1087698;54;20615;-77
2022/03/02 04:11:39;;;;;;;14.98;10.00;;;;;;;0.96;60.62;100662.94;1087647;54;20046;-76
2022/03/02 04:12:44;;;;;;;12.98;8.98;;;;;;;0.98;60.34;100655.81;1087298;54;20571;-77
2022/03/02 04:13:46;;;;;;;12.95;8.52;;;;;;;1.00;60.55;100656.63;1087729;54;20063;-76
2022/03/02 04:14:50;;;;;;;12.88;8.73;;;;;;;1.00;60.45;100659.25;1088067;54;20094;-77
2022/03/02 04:15:51;;;;;;;14.02;9.25;;;;;;;1.03;60.55;100653.88;1087976;54;20030;-77
2022/03/02 04:16:56;;;;;;;14.15;9.23;;;;;;;1.03;60.41;100656.50;1088006;54;20031;-76
2022/03/02 04:18:00;;;;;;;14.88;9.32;;;;;;;1.03;60.57;100651.22;1088035;54;20728;-77
2022/03/02 04:19:04;;;;;;;15.02;9.13;;;;;;;1.06;60.59;100648.44;1088092;54;20069;-76
2022/03/02 04:20:09;;;;;;;13.43;8.88;;;;;;;1.10;60.54;100651.78;1088008;54;20650;-78
2022/03/02 04:21:11;;;;;;;16.17;9.20;;;;;;;1.10;60.58;100646.50;1089247;39;20783;-77
2022/03/02 04:22:15;;;;;;;15.38;10.02;;;;;;;1.11;60.56;100648.22;1088772;31;20765;-77
2022/03/02 04:23:21;;;;;;;17.45;10.88;;;;;;;1.06;61.03;100643.16;1088011;54;20033;-77
2022/03/02 04:24:23;;;;;;;15.18;10.52;;;;;;;1.05;61.03;100645.88;1087813;54;20046;-77
2022/03/02 04:25:27;;;;;;;15.13;9.13;;;;;;;1.08;61.08;100643.97;1088003;54;20011;-77
2022/03/02 04:26:29;;;;;;;14.13;9.77;;;;;;;1.12;61.00;100643.84;1087925;54;20026;-76
2022/03/02 04:27:35;;;;;;;16.08;10.40;;;;;;;1.08;61.13;100641.31;1089491;47;20034;-76
2022/03/02 04:28:37;;;;;;;16.02;10.50;;;;;;;1.09;61.18;100647.44;1088060;54;20046;-76
2022/03/02 04:29:41;;;;;;;15.02;9.57;;;;;;;1.05;61.02;100637.97;1087557;54;20034;-77
2022/03/02 04:30:43;;;;;;;16.20;10.88;;;;;;;1.00;61.46;100638.19;1087823;47;20015;-77
2022/03/02 04:31:47;;;;;;;14.85;9.88;;;;;;;1.01;61.32;100645.16;1089572;47;20025;-76
2022/03/02 04:32:51;;;;;;;14.43;10.10;;;;;;;0.98;61.60;100642.66;1088068;54;20035;-77
2022/03/02 04:33:53;;;;;;;16.92;10.88;;;;;;;1.00;61.56;100648.72;1088134;54;20030;-78
2022/03/02 04:34:57;;;;;;;15.32;10.00;;;;;;;1.00;61.87;100645.22;1088271;47;20015;-76
2022/03/02 04:35:59;;;;;;;15.52;9.85;;;;;;;1.03;61.87;100642.47;1088078;54;20022;-78
2022/03/02 04:37:03;;;;;;;15.60;9.52;;;;;;;1.06;61.88;100642.31;1089528;47;20019;-76
2022/03/02 04:38:05;;;;;;;16.05;9.90;;;;;;;0.98;62.06;100647.94;1088118;54;20023;-77
2022/03/02 04:39:10;;;;;;;17.15;10.23;;;;;;;1.02;62.16;100640.75;1090574;39;20546;-78
2022/03/02 04:40:13;;;;;;;15.65;10.35;;;;;;;1.02;62.06;100641.63;1088099;54;20029;-77
2022/03/02 04:41:17;;;;;;;13.82;9.40;;;;;;;1.01;61.96;100639.91;1087928;54;20034;-79
2022/03/02 04:42:19;;;;;;;15.77;9.65;;;;;;;1.00;62.10;100642.59;1089994;47;20035;-79
2022/03/02 04:43:25;;;;;;;16.65;9.45;;;;;;;0.97;62.29;100643.59;1091225;47;20034;-79
2022/03/02 04:44:27;;;;;;;16.23;9.85;;;;;;;1.04;62.05;100644.16;1088033;54;20019;-79
2022/03/02 04:45:31;;;;;;;13.90;9.45;;;;;;;1.02;62.17;100649.50;1087657;54;20030;-80
2022/03/02 04:46:33;;;;;;;16.63;9.80;;;;;;;1.06;61.94;100645.81;1087689;54;20057;-80
2022/03/02 04:47:37;;;;;;;14.90;9.13;;;;;;;1.00;62.15;100648.72;1088973;39;20624;-79
2022/03/02 04:48:39;;;;;;;15.40;9.73;;;;;;;1.01;62.26;100650.44;1087111;39;20471;-79
2022/03/02 04:49:43;;;;;;;13.07;9.70;;;;;;;1.03;62.18;100647.72;1092898;31;20549;-79
2022/03/02 04:50:47;;;;;;;14.80;9.77;;;;;;;1.03;62.00;100650.34;1087389;54;20039;-78
2022/03/02 04:51:49;;;;;;;14.13;9.43;;;;;;;1.01;62.08;100654.84;1087448;54;20042;-79
2022/03/02 04:52:55;;;;;;;16.67;9.98;;;;;;;1.02;62.14;100646.88;1087778;54;20065;-78
2022/03/02 04:53:56;;;;;;;14.70;9.75;;;;;;;1.04;62.00;100639.75;1087944;54;20038;-79